createdAt,value
2022-11-05T00:00:06.346Z,27.63
2022-11-05T00:02:51.431Z,30.33
2022-11-05T00:05:50.211Z,32.25
2022-11-05T00:08:34.890Z,31.45
2022-11-05T00:11:01.379Z,28.23
2022-11-05T00:13:46.397Z,30.60
2022-11-05T00:16:31.373Z,25.50
2022-11-05T00:19:06.851Z,26.10
2022-11-05T00:21:57.166Z,26.55
2022-11-05T00:24:42.609Z,28.88
2022-11-05T00:27:09.312Z,28.15
2022-11-05T00:29:35.799Z,31.35
2022-11-05T00:32:02.235Z,28.50
2022-11-05T00:34:28.696Z,31.70
2022-11-05T00:36:55.838Z,31.83
2022-11-05T00:39:22.243Z,29.20
2022-11-05T00:42:08.619Z,35.78
2022-11-05T00:44:53.539Z,29.10
2022-11-05T00:47:38.385Z,31.50
2022-11-05T00:50:05.096Z,36.75
2022-11-05T00:52:50.169Z,33.75
2022-11-05T00:55:16.624Z,35.60
2022-11-05T00:57:42.988Z,35.63
2022-11-05T01:00:11.102Z,36.40
2022-11-05T01:02:37.578Z,37.83
2022-11-05T01:05:04.378Z,35.00
2022-11-05T01:07:30.748Z,33.28
2022-11-05T01:09:57.165Z,35.25
2022-11-05T01:12:23.604Z,36.25
2022-11-05T01:14:49.981Z,35.30
2022-11-05T01:17:16.862Z,38.60
2022-11-05T01:19:43.269Z,36.85
2022-11-05T01:22:09.676Z,33.08
2022-11-05T01:24:36.057Z,34.90
2022-11-05T01:27:02.551Z,38.88
2022-11-05T01:29:28.930Z,31.60
2022-11-05T01:31:55.312Z,31.77
2022-11-05T01:34:21.701Z,31.58
2022-11-05T01:36:48.069Z,32.70
2022-11-05T01:39:14.519Z,29.38
2022-11-05T01:41:40.903Z,32.40
2022-11-05T01:44:47.820Z,33.90
2022-11-05T01:47:21.880Z,33.55
2022-11-05T01:49:48.356Z,32.15
2022-11-05T01:52:14.836Z,33.45
2022-11-05T01:54:41.270Z,33.80
2022-11-05T01:57:10.137Z,35.67
2022-11-05T01:59:39.829Z,37.03
2022-11-05T02:02:07.795Z,35.38
2022-11-05T02:04:55.642Z,31.45
2022-11-05T02:07:23.616Z,37.03
2022-11-05T02:10:01.949Z,33.47
2022-11-05T02:12:31.797Z,34.85
2022-11-05T02:14:58.679Z,36.17
2022-11-05T02:17:47.969Z,35.40
2022-11-05T02:20:23.552Z,33.53
2022-11-05T02:23:26.249Z,30.20
2022-11-05T02:26:07.859Z,34.85
2022-11-05T02:28:49.581Z,27.98
2022-11-05T02:31:27.130Z,36.08
2022-11-05T02:34:04.088Z,31.27
2022-11-05T02:36:46.808Z,34.47
2022-11-05T02:39:21.862Z,28.15
2022-11-05T02:42:04.725Z,26.63
2022-11-05T02:44:47.527Z,32.25
2022-11-05T02:47:32.701Z,29.38
2022-11-05T02:50:39.188Z,31.05
2022-11-05T02:53:18.605Z,30.10
2022-11-05T02:55:59.657Z,31.17
2022-11-05T02:58:29.380Z,32.78
2022-11-05T03:00:56.954Z,25.63
2022-11-05T03:03:39.383Z,26.48
2022-11-05T03:06:20.943Z,22.92
2022-11-05T03:09:06.111Z,28.42
2022-11-05T03:11:41.663Z,27.08
2022-11-05T03:14:40.622Z,31.00
2022-11-05T03:17:43.999Z,26.00
2022-11-05T03:20:18.933Z,26.42
2022-11-05T03:22:52.357Z,27.83
2022-11-05T03:25:21.939Z,27.83
2022-11-05T03:27:52.896Z,29.50
2022-11-05T03:30:19.799Z,34.80
2022-11-05T03:32:55.116Z,29.40
2022-11-05T03:35:25.067Z,25.73
2022-11-05T03:37:55.069Z,25.02
2022-11-05T03:40:22.540Z,27.80
2022-11-05T03:42:52.572Z,29.42
2022-11-05T03:45:22.360Z,25.45
2022-11-05T03:47:50.822Z,28.50
2022-11-05T03:50:42.307Z,28.10
2022-11-05T03:53:42.898Z,25.60
2022-11-05T03:56:13.188Z,24.33
2022-11-05T03:58:44.086Z,24.50
2022-11-05T04:01:10.629Z,21.23
2022-11-05T04:03:37.138Z,21.42
2022-11-05T04:06:23.986Z,21.48
2022-11-05T04:09:09.526Z,25.80
2022-11-05T04:11:54.596Z,27.42
2022-11-05T04:14:21.049Z,31.98
2022-11-05T04:17:05.829Z,25.50
2022-11-05T04:19:52.613Z,34.15
2022-11-05T04:22:37.284Z,33.03
2022-11-05T04:25:03.977Z,38.05
2022-11-05T04:27:30.421Z,34.58
2022-11-05T04:30:15.304Z,35.95
2022-11-05T04:32:41.732Z,40.63
2022-11-05T04:35:08.168Z,39.42
2022-11-05T04:37:34.550Z,41.92
2022-11-05T04:40:01.004Z,44.25
2022-11-05T04:42:28.045Z,46.90
2022-11-05T04:44:54.447Z,43.88
2022-11-05T04:47:20.818Z,43.70
2022-11-05T04:49:47.199Z,45.55
2022-11-05T04:52:13.853Z,43.83
2022-11-05T04:54:40.220Z,52.45
2022-11-05T04:57:06.659Z,47.75
2022-11-05T04:59:33.031Z,48.10
2022-11-05T05:01:59.430Z,50.42
2022-11-05T05:04:25.908Z,55.15
2022-11-05T05:06:52.328Z,60.53
2022-11-05T05:09:18.728Z,59.35
2022-11-05T05:11:45.269Z,64.80
2022-11-05T05:14:11.690Z,50.92
2022-11-05T05:16:38.089Z,75.72
2022-11-05T05:19:04.487Z,65.82
2022-11-05T05:21:40.344Z,58.33
2022-11-05T05:24:13.786Z,57.50
2022-11-05T05:26:45.614Z,53.67
2022-11-05T05:29:12.481Z,78.97
2022-11-05T05:31:39.273Z,69.07
2022-11-05T05:34:06.885Z,75.65
2022-11-05T05:36:33.499Z,69.03
2022-11-05T05:38:59.932Z,95.18
2022-11-05T05:41:26.364Z,86.70
2022-11-05T05:43:52.848Z,85.15
2022-11-05T05:46:19.753Z,109.75
2022-11-05T05:48:51.019Z,89.38
2022-11-05T05:51:17.901Z,89.43
2022-11-05T05:53:44.401Z,111.18
2022-11-05T05:56:11.114Z,80.90
2022-11-05T05:58:38.661Z,82.88
2022-11-05T06:01:17.232Z,97.45
2022-11-05T06:03:45.285Z,97.55
2022-11-05T06:06:15.556Z,90.25
2022-11-05T06:08:42.215Z,112.65
2022-11-05T06:11:09.077Z,128.25
2022-11-05T06:13:36.089Z,121.78
2022-11-05T06:16:09.259Z,120.53
2022-11-05T06:18:35.988Z,134.27
2022-11-05T06:21:10.334Z,123.43
2022-11-05T06:23:38.372Z,137.95
2022-11-05T06:26:07.200Z,160.60
2022-11-05T06:28:34.475Z,87.45
2022-11-05T06:31:01.106Z,145.00
2022-11-05T06:33:28.024Z,115.03
2022-11-05T06:35:54.798Z,81.53
2022-11-05T06:38:21.167Z,137.82
2022-11-05T06:40:47.543Z,149.23
2022-11-05T06:43:14.366Z,183.55
2022-11-05T06:45:41.041Z,146.98
2022-11-05T06:48:07.504Z,220.88
2022-11-05T06:50:33.964Z,172.38
2022-11-05T06:53:02.501Z,127.45
2022-11-05T06:55:30.353Z,202.35
2022-11-05T06:57:57.281Z,243.38
2022-11-05T07:00:24.157Z,158.82
2022-11-05T07:02:50.607Z,272.45
2022-11-05T07:05:17.094Z,139.88
2022-11-05T07:07:44.717Z,269.98
2022-11-05T07:10:16.217Z,255.10
2022-11-05T07:12:43.075Z,124.22
2022-11-05T07:15:11.295Z,87.55
2022-11-05T07:17:40.358Z,96.57
2022-11-05T07:20:08.048Z,90.60
2022-11-05T07:22:35.385Z,87.47
2022-11-05T07:25:01.964Z,82.47
2022-11-05T07:27:28.715Z,91.65
2022-11-05T07:29:55.094Z,89.80
2022-11-05T07:32:21.482Z,118.30
2022-11-05T07:34:47.930Z,81.10
2022-11-05T07:37:16.568Z,92.35
2022-11-05T07:39:43.079Z,95.38
2022-11-05T07:42:13.422Z,94.20
2022-11-05T07:44:39.819Z,99.18
2022-11-05T07:47:06.201Z,96.82
2022-11-05T07:49:32.590Z,98.93
2022-11-05T07:51:58.967Z,95.55
2022-11-05T07:54:26.569Z,92.35
2022-11-05T07:56:53.037Z,97.65
2022-11-05T07:59:19.538Z,95.70
2022-11-05T08:01:45.982Z,106.45
2022-11-05T08:04:12.668Z,100.13
2022-11-05T08:06:39.063Z,99.82
2022-11-05T08:09:05.598Z,97.40
2022-11-05T08:11:32.242Z,99.60
2022-11-05T08:13:58.636Z,99.45
2022-11-05T08:16:25.420Z,94.32
2022-11-05T08:18:51.947Z,87.32
2022-11-05T08:21:18.359Z,89.75
2022-11-05T08:23:45.304Z,83.18
2022-11-05T08:26:11.696Z,84.97
2022-11-05T08:28:38.094Z,88.55
2022-11-05T08:31:04.599Z,86.32
2022-11-05T08:33:31.468Z,84.10
2022-11-05T08:36:01.870Z,80.18
2022-11-05T08:38:28.266Z,75.03
2022-11-05T08:40:57.374Z,85.25
2022-11-05T08:43:24.055Z,72.55
2022-11-05T08:45:50.478Z,69.15
2022-11-05T08:48:18.324Z,63.20
2022-11-05T08:50:46.344Z,64.72
2022-11-05T08:53:13.720Z,64.80
2022-11-05T08:55:40.770Z,61.13
2022-11-05T08:58:12.319Z,62.20
2022-11-05T09:00:39.537Z,62.17
2022-11-05T09:03:07.196Z,60.38
2022-11-05T09:05:37.723Z,63.75
2022-11-05T09:08:12.604Z,65.10
2022-11-05T09:10:40.016Z,63.20
2022-11-05T09:13:07.050Z,66.15
2022-11-05T09:15:33.821Z,66.32
2022-11-05T09:18:00.276Z,69.60
2022-11-05T09:20:26.732Z,69.13
2022-11-05T09:22:53.240Z,81.95
2022-11-05T09:25:19.726Z,80.30
2022-11-05T09:27:46.150Z,82.93
2022-11-05T09:30:13.316Z,85.07
2022-11-05T09:32:40.001Z,87.63
2022-11-05T09:35:07.295Z,90.68
2022-11-05T09:37:33.729Z,84.57
2022-11-05T09:40:00.113Z,90.65
2022-11-05T09:42:31.232Z,82.15
2022-11-05T09:45:02.358Z,83.18
2022-11-05T09:47:37.944Z,83.15
2022-11-05T09:50:08.493Z,79.20
2022-11-05T09:52:34.913Z,82.10
2022-11-05T09:55:03.861Z,81.57
2022-11-05T09:57:40.988Z,81.05
2022-11-05T10:00:08.570Z,78.03
2022-11-05T10:02:42.931Z,83.05
2022-11-05T10:05:11.874Z,81.75
2022-11-05T10:07:45.543Z,76.68
2022-11-05T10:10:40.324Z,77.78
2022-11-05T10:13:45.179Z,78.43
2022-11-05T10:16:15.625Z,74.30
2022-11-05T10:18:44.823Z,76.32
2022-11-05T10:21:32.273Z,69.80
2022-11-05T10:24:18.897Z,69.03
2022-11-05T10:26:51.032Z,65.57
2022-11-05T10:29:25.872Z,61.05
2022-11-05T10:31:53.690Z,57.10
2022-11-05T10:34:21.361Z,55.25
2022-11-05T10:36:48.372Z,55.90
2022-11-05T10:39:17.393Z,53.80
2022-11-05T10:41:52.736Z,52.83
2022-11-05T10:44:41.022Z,51.28
2022-11-05T10:47:32.258Z,44.45
2022-11-05T10:50:00.809Z,48.63
2022-11-05T10:52:33.277Z,40.55
2022-11-05T10:55:02.286Z,37.85
2022-11-05T10:57:33.116Z,36.65
2022-11-05T11:00:14.997Z,35.63
2022-11-05T11:03:01.748Z,33.77
2022-11-05T11:05:35.881Z,34.28
2022-11-05T11:08:11.415Z,30.35
2022-11-05T11:11:01.338Z,28.42
2022-11-05T11:13:30.376Z,24.05
2022-11-05T11:16:19.818Z,25.25
2022-11-05T11:18:46.198Z,23.58
2022-11-05T11:21:14.740Z,23.02
2022-11-05T11:23:42.470Z,20.75
2022-11-05T11:26:10.188Z,17.27
2022-11-05T11:29:00.923Z,19.27
2022-11-05T11:31:29.656Z,14.90
2022-11-05T11:34:02.542Z,15.93
2022-11-05T11:36:44.542Z,17.58
2022-11-05T11:39:16.541Z,13.75
2022-11-05T11:41:44.091Z,11.52
2022-11-05T11:44:19.975Z,13.00
2022-11-05T11:46:49.736Z,12.13
2022-11-05T11:49:44.119Z,13.82
2022-11-05T11:52:30.779Z,18.42
2022-11-05T11:55:21.949Z,12.77
2022-11-05T11:57:49.711Z,14.07
2022-11-05T12:00:17.492Z,17.00
2022-11-05T12:03:11.113Z,8.48
2022-11-05T12:05:45.031Z,10.07
2022-11-05T12:08:22.798Z,10.23
2022-11-05T12:11:29.452Z,11.25
2022-11-05T12:13:59.867Z,7.90
2022-11-05T12:16:49.612Z,11.25
2022-11-05T12:19:48.361Z,9.57
2022-11-05T12:22:39.174Z,11.75
2022-11-05T12:25:17.778Z,11.98
2022-11-05T12:28:07.327Z,12.02
2022-11-05T12:30:42.950Z,12.43
2022-11-05T12:33:37.108Z,10.07
2022-11-05T12:36:08.825Z,11.13
2022-11-05T12:39:19.303Z,12.07
2022-11-05T12:41:54.085Z,12.57
2022-11-05T12:44:37.162Z,8.40
2022-11-05T12:47:21.788Z,9.43
2022-11-05T12:50:04.655Z,10.50
2022-11-05T12:53:10.121Z,11.95
2022-11-05T12:55:47.094Z,12.68
2022-11-05T12:58:21.880Z,9.23
2022-11-05T13:00:55.987Z,8.07
2022-11-05T13:03:42.713Z,12.98
2022-11-05T13:06:17.457Z,11.77
2022-11-05T13:08:48.683Z,12.45
2022-11-05T13:11:25.369Z,9.88
2022-11-05T13:14:00.465Z,10.32
2022-11-05T13:16:34.242Z,11.13
2022-11-05T13:19:26.639Z,10.13
2022-11-05T13:22:00.763Z,10.25
2022-11-05T13:24:31.282Z,12.05
2022-11-05T13:27:12.957Z,8.93
2022-11-05T13:29:45.566Z,12.57
2022-11-05T13:34:55.615Z,11.48
2022-11-05T13:37:44.990Z,10.35
2022-11-05T13:40:13.906Z,9.77
2022-11-05T13:43:07.796Z,9.75
2022-11-05T13:45:57.373Z,9.75
2022-11-05T13:48:54.740Z,11.57
2022-11-05T13:51:38.646Z,9.98
2022-11-05T13:54:42.768Z,13.45
2022-11-05T13:57:34.583Z,11.30
2022-11-05T14:00:17.343Z,10.13
2022-11-05T14:05:24.409Z,11.73
2022-11-05T14:07:51.431Z,12.57
2022-11-05T14:10:31.461Z,9.70
2022-11-05T14:12:59.797Z,10.98
2022-11-05T14:15:30.350Z,9.68
2022-11-05T14:18:20.374Z,9.98
2022-11-05T14:20:59.119Z,8.50
2022-11-05T14:23:25.745Z,10.02
2022-11-05T14:25:55.873Z,9.13
2022-11-05T14:28:34.359Z,12.52
2022-11-05T14:31:41.178Z,9.77
2022-11-05T14:34:10.559Z,12.82
2022-11-05T14:36:39.080Z,9.73
2022-11-05T14:39:26.912Z,11.30
2022-11-05T14:41:57.238Z,10.63
2022-11-05T14:44:24.891Z,8.43
2022-11-05T14:46:53.599Z,9.85
2022-11-05T14:49:33.336Z,10.48
2022-11-05T14:52:00.905Z,14.18
2022-11-05T14:55:05.867Z,14.30
2022-11-05T14:57:41.847Z,11.43
2022-11-05T15:00:41.860Z,10.05
2022-11-05T15:03:26.759Z,8.00
2022-11-05T15:06:04.583Z,7.78
2022-11-05T15:08:36.255Z,12.48
2022-11-05T15:11:16.154Z,9.90
2022-11-05T15:13:49.035Z,9.93
2022-11-05T15:16:23.728Z,9.05
2022-11-05T15:18:51.145Z,10.93
2022-11-05T15:21:18.418Z,6.25
2022-11-05T15:23:46.740Z,10.07
2022-11-05T15:26:29.039Z,10.15
2022-11-05T15:28:56.091Z,12.45
2022-11-05T15:31:30.815Z,9.88
2022-11-05T15:34:17.963Z,9.20
2022-11-05T15:37:00.018Z,9.05
2022-11-05T15:39:41.473Z,10.57
2022-11-05T15:42:16.599Z,9.00
2022-11-05T15:44:48.407Z,13.27
2022-11-05T15:47:21.790Z,8.80
2022-11-05T15:49:56.296Z,13.80
2022-11-05T15:52:33.430Z,11.90
2022-11-05T15:55:19.226Z,9.10
2022-11-05T15:57:51.594Z,10.43
2022-11-05T16:00:29.535Z,11.15
2022-11-05T16:02:58.551Z,11.05
2022-11-05T16:05:29.904Z,12.50
2022-11-05T16:08:00.696Z,8.88
2022-11-05T16:10:35.620Z,11.13
2022-11-05T16:13:37.397Z,12.00
2022-11-05T16:16:23.304Z,9.88
2022-11-05T16:18:49.702Z,13.15
2022-11-05T16:21:18.865Z,10.90
2022-11-05T16:23:48.217Z,11.27
2022-11-05T16:29:33.462Z,11.35
2022-11-05T16:32:01.731Z,12.55
2022-11-05T16:34:33.757Z,10.82
2022-11-05T16:37:00.264Z,14.32
2022-11-05T16:39:26.684Z,12.80
2022-11-05T16:41:53.382Z,11.07
2022-11-05T16:44:19.799Z,13.15
2022-11-05T16:46:48.494Z,11.55
2022-11-05T16:49:15.881Z,13.52
2022-11-05T16:51:43.261Z,14.98
2022-11-05T16:54:09.917Z,12.20
2022-11-05T16:56:36.803Z,10.65
2022-11-05T16:59:04.119Z,10.93
2022-11-05T17:01:30.590Z,10.23
2022-11-05T17:03:57.094Z,11.70
2022-11-05T17:06:23.451Z,9.73
2022-11-05T17:08:49.859Z,10.65
2022-11-05T17:11:18.190Z,12.63
2022-11-05T17:13:44.970Z,12.55
2022-11-05T17:16:13.084Z,11.50
2022-11-05T17:18:40.389Z,13.85
2022-11-05T17:21:07.602Z,12.30
2022-11-05T17:23:34.540Z,12.20
2022-11-05T17:26:03.504Z,10.15
2022-11-05T17:28:30.378Z,15.98
2022-11-05T17:31:01.876Z,10.85
2022-11-05T17:33:29.186Z,13.48
2022-11-05T17:35:56.079Z,14.25
2022-11-05T17:38:23.999Z,14.98
2022-11-05T17:40:50.583Z,17.02
2022-11-05T17:43:17.375Z,13.15
2022-11-05T17:45:47.109Z,14.57
2022-11-05T17:48:14.306Z,11.50
2022-11-05T17:50:46.229Z,10.90
2022-11-05T17:53:13.493Z,11.30
2022-11-05T17:55:41.775Z,8.70
2022-11-05T17:58:08.600Z,8.80
2022-11-05T18:00:35.868Z,10.38
2022-11-05T18:03:02.336Z,13.38
2022-11-05T18:05:30.791Z,11.88
2022-11-05T18:07:57.992Z,8.65
2022-11-05T18:10:24.847Z,9.80
2022-11-05T18:12:51.556Z,10.73
2022-11-05T18:15:18.368Z,10.48
2022-11-05T18:17:46.133Z,9.57
2022-11-05T18:20:18.873Z,9.48
2022-11-05T18:22:46.587Z,9.85
2022-11-05T18:25:13.985Z,11.35
2022-11-05T18:27:40.534Z,9.48
2022-11-05T18:30:07.908Z,9.25
2022-11-05T18:32:34.334Z,9.07
2022-11-05T18:35:00.799Z,8.70
2022-11-05T18:37:27.406Z,12.23
2022-11-05T18:39:53.917Z,8.13
2022-11-05T18:42:20.657Z,9.77
2022-11-05T18:44:48.010Z,9.38
2022-11-05T18:47:14.613Z,8.25
2022-11-05T18:49:41.109Z,10.48
2022-11-05T18:52:07.647Z,9.13
2022-11-05T18:54:34.111Z,8.98
2022-11-05T18:57:00.621Z,7.60
2022-11-05T18:59:42.466Z,6.93
2022-11-05T19:02:11.021Z,8.53
2022-11-05T19:04:37.579Z,8.30
2022-11-05T19:07:05.688Z,10.25
2022-11-05T19:09:33.644Z,10.23
2022-11-05T19:12:00.548Z,5.50
2022-11-05T19:14:26.931Z,9.23
2022-11-05T19:16:53.317Z,8.80
2022-11-05T19:19:19.703Z,8.13
2022-11-05T19:21:46.067Z,8.25
2022-11-05T19:24:16.830Z,8.77
2022-11-05T19:26:43.858Z,8.13
2022-11-05T19:29:10.297Z,8.23
2022-11-05T19:31:36.901Z,12.18
2022-11-05T19:34:05.268Z,13.18
2022-11-05T19:36:32.279Z,10.48
2022-11-05T19:39:02.131Z,9.75
2022-11-05T19:41:28.593Z,9.48
2022-11-05T19:43:55.264Z,9.05
2022-11-05T19:46:23.059Z,8.68
2022-11-05T19:48:50.084Z,9.52
2022-11-05T19:51:19.767Z,7.72
2022-11-05T19:53:46.423Z,8.80
2022-11-05T19:56:18.363Z,7.63
2022-11-05T19:58:44.811Z,8.63
2022-11-05T20:01:12.649Z,9.13
2022-11-05T20:03:39.755Z,10.50
2022-11-05T20:06:11.457Z,7.78
2022-11-05T20:08:53.319Z,8.80
2022-11-05T20:11:24.921Z,9.00
2022-11-05T20:13:51.429Z,9.00
2022-11-05T20:16:22.773Z,7.72
2022-11-05T20:18:49.361Z,8.50
2022-11-05T20:21:16.052Z,9.90
2022-11-05T20:23:42.877Z,10.35
2022-11-05T20:26:10.324Z,8.30
2022-11-05T20:28:37.608Z,10.40
2022-11-05T20:31:09.229Z,9.60
2022-11-05T20:33:35.633Z,6.70
2022-11-05T20:36:04.716Z,8.85
2022-11-05T20:38:31.616Z,8.77
2022-11-05T20:40:58.678Z,9.15
2022-11-05T20:43:30.129Z,9.98
2022-11-05T20:45:58.165Z,7.40
2022-11-05T20:48:24.543Z,10.30
2022-11-05T20:50:50.901Z,9.32
2022-11-05T20:53:17.488Z,9.90
2022-11-05T20:55:45.922Z,6.72
2022-11-05T20:58:13.917Z,8.00
2022-11-05T21:00:41.280Z,7.72
2022-11-05T21:03:07.703Z,10.25
2022-11-05T21:05:35.633Z,9.55
2022-11-05T21:08:02.230Z,11.25
2022-11-05T21:10:28.700Z,8.85
2022-11-05T21:12:55.129Z,10.57
2022-11-05T21:15:23.080Z,8.68
2022-11-05T21:17:50.477Z,8.02
2022-11-05T21:20:17.050Z,8.57
2022-11-05T21:22:45.305Z,6.93
2022-11-05T21:25:12.162Z,10.65
2022-11-05T21:27:43.269Z,7.70
2022-11-05T21:30:10.881Z,7.72
2022-11-05T21:32:37.354Z,11.77
2022-11-05T21:35:05.097Z,7.43
2022-11-05T21:37:32.040Z,8.07
2022-11-05T21:39:58.441Z,11.73
2022-11-05T21:42:24.893Z,10.25
2022-11-05T21:44:53.934Z,10.95
2022-11-05T21:47:22.779Z,7.55
2022-11-05T21:49:49.159Z,9.73
2022-11-05T21:52:34.003Z,11.02
2022-11-05T21:55:18.798Z,7.90
2022-11-05T21:58:03.640Z,9.82
2022-11-05T22:00:30.058Z,8.85
2022-11-05T22:02:59.820Z,9.20
2022-11-05T22:05:27.253Z,9.25
2022-11-05T22:07:53.721Z,11.23
2022-11-05T22:10:20.244Z,9.05
2022-11-05T22:12:46.689Z,10.85
2022-11-05T22:15:13.741Z,10.25
2022-11-05T22:17:45.317Z,12.02
2022-11-05T22:20:13.155Z,12.52
2022-11-05T22:22:39.548Z,9.20
2022-11-05T22:25:06.093Z,10.48
2022-11-05T22:27:32.494Z,8.88
2022-11-05T22:29:58.876Z,8.13
2022-11-05T22:32:25.329Z,7.57
2022-11-05T22:34:51.893Z,10.52
2022-11-05T22:37:18.301Z,8.70
2022-11-05T22:39:44.730Z,8.13
2022-11-05T22:42:11.240Z,8.57
2022-11-05T22:44:37.774Z,9.43
2022-11-05T22:47:04.685Z,12.35
2022-11-05T22:49:32.095Z,8.25
2022-11-05T22:51:58.908Z,10.57
2022-11-05T22:54:25.392Z,8.52
2022-11-05T22:56:53.042Z,9.68
2022-11-05T22:59:19.436Z,12.82
2022-11-05T23:01:46.516Z,9.05
2022-11-05T23:04:13.558Z,8.93
2022-11-05T23:06:58.675Z,8.57
2022-11-05T23:09:46.964Z,15.02
2022-11-05T23:12:37.680Z,13.18
2022-11-05T23:15:06.137Z,12.98
2022-11-05T23:17:51.301Z,14.32
2022-11-05T23:20:38.814Z,9.82
2022-11-05T23:23:29.824Z,11.75
2022-11-05T23:25:59.696Z,13.70
2022-11-05T23:28:26.504Z,9.18
2022-11-05T23:31:11.444Z,12.98
2022-11-05T23:33:37.799Z,10.02
2022-11-05T23:36:39.580Z,13.10
2022-11-05T23:39:05.941Z,9.02
2022-11-05T23:41:50.944Z,12.65
2022-11-05T23:44:36.007Z,10.43
2022-11-05T23:47:21.099Z,10.45
2022-11-05T23:49:47.508Z,12.88
2022-11-05T23:52:14.087Z,14.23
2022-11-05T23:54:40.644Z,11.30
2022-11-05T23:57:07.050Z,10.30
2022-11-05T23:59:33.440Z,11.20
